• Join FlightAware (Why Join?)
  • Login
  • US Flag 
01:03PM EDT


 

Airport Tracker/Info


-or-


 

Live Flight TrackerFlight Track Log ✈ PDT4314 ✈ 29-Oct-2013 ✈ KPHL - KBGM

Flight Track Log - Related Links

Times and Time Zones

All times are in EDT time to prevent confusion due to time zone crossing. See the PDT4314 flight status page for this flight to view local times or setup timezone preferences in your user account.

Time Position Orientation Groundspeed Altitude Reporting Facility
EDT Latitude Longitude Course Direction KTS MPH feet Rate Location/Type
04:19PM 39.9000 -75.2333 288° West 120 138 500  Level Philadelphia TRACON
04:20PM 39.9167 -75.3000 288° West 153 176 2,500 1,680 Climbing Philadelphia TRACON
04:21PM 39.9333 -75.3500 294° West 135 155 4,300 1,740 Climbing Philadelphia TRACON
04:22PM 39.9333 -75.3833 270° West 128 147 6,000 1,620 Climbing Philadelphia TRACON
04:23PM 39.9333 -75.4333 270° West 111 128 7,800 1,080 Climbing Philadelphia TRACON
04:24PM 39.9667 -75.4667 323° Northwest 175 201 8,300 480 Climbing Philadelphia TRACON
04:25PM 39.9931 -75.4636 North 200 230 8,600 420 Climbing New York Center
04:26PM 40.0386 -75.4750 349° North 195 224 9,000 840 Climbing New York Center
04:27PM 40.0875 -75.5000 339° North 177 204 10,300 1,080 Climbing New York Center
04:28PM 40.1261 -75.5217 337° Northwest 170 196 11,200 840 Climbing New York Center
04:29PM 40.1756 -75.5386 345° North 165 190 12,000 360 Climbing New York Center
04:30PM 40.2225 -75.5608 340° North 182 209 12,000 480 Level New York Center
04:31PM 40.2672 -75.5939 331° Northwest 190 219 13,000 900 Climbing New York Center
04:32PM 40.3136 -75.6297 330° Northwest 181 208 13,900 480 Climbing New York Center
04:33PM 40.3558 -75.6681 325° Northwest 181 208 14,000  Climbing New York Center
04:34PM 40.4019 -75.7122 324° Northwest 199 229 14,000  Level New York Center
04:35PM 40.4483 -75.7483 329° Northwest 213 245 14,000  Level New York Center
04:36PM 40.4983 -75.7983 323° Northwest 213 245 14,000  Level New York Center
04:37PM 40.5567 -75.8464 328° Northwest 218 251 14,000  Level New York Center
04:38PM 40.6092 -75.8858 330° Northwest 218 251 14,000  Level New York Center
04:39PM 40.6592 -75.9306 326° Northwest 218 251 14,000  Level New York Center
04:40PM 40.6994 -75.9664 326° Northwest 218 251 14,000  Level New York Center
04:41PM 40.7572 -76.0228 324° Northwest 213 245 14,000  Level New York Center
04:42PM 40.8097 -76.0625 330° Northwest 213 245 14,000  Level New York Center
04:43PM 40.8619 -76.1078 327° Northwest 218 251 14,000  Level New York Center
04:44PM 40.9058 -76.1497 324° Northwest 218 251 14,000  Level New York Center
04:45PM 40.9622 -76.1953 329° Northwest 218 251 14,000  Level New York Center
04:46PM 41.0169 -76.2272 336° Northwest 213 245 14,000  Level New York Center
04:47PM 41.0781 -76.2100 12° North 220 253 14,000  Level New York Center
04:48PM 41.1511 -76.2103 360° North 237 273 14,000  Level New York Center
04:49PM 41.2158 -76.2047 North 237 273 14,000  Level New York Center
04:50PM 41.2828 -76.1961 North 237 273 14,000  Level New York Center
04:51PM 41.3433 -76.1956 360° North 237 273 14,000 -120 Level New York Center
04:52PM 41.4100 -76.1925 North 237 273 13,800 -600 Descending New York Center
04:53PM 41.4894 -76.1881 North 242 278 12,900 -900 Descending New York Center
04:54PM 41.5625 -76.1828 North 258 297 12,100 -840 Descending New York Center
04:55PM 41.6336 -76.1775 North 258 297 11,300 -840 Descending New York Center
04:56PM 41.6983 -76.1744 North 253 291 10,500 -1,020 Descending New York Center
04:57PM 41.7703 -76.1494 15° North 259 298 9,300 -1,440 Descending New York Center
04:58PM 41.8489 -76.1169 17° North 266 306 7,700 -1,560 Descending New York Center
04:59PM 41.9142 -76.0972 13° North 254 292 6,200 -1,200 Descending New York Center
05:00PM 41.9761 -76.0658 21° North 234 269 5,400 -660 Descending New York Center
05:01PM 42.0294 -76.0339 24° Northeast 228 262 4,900 -720 Descending New York Center
05:02PM 42.0894 -75.9939 26° Northeast 228 262 4,000 -780 Descending New York Center
05:03PM 42.1325 -75.9664 25° Northeast 195 224 3,400 -780 Descending New York Center
05:04PM 42.1664 -75.9494 20° North 154 177 2,500 -660 Descending New York Center
05:05PM 42.2025 -75.9356 16° North 137 158 2,100 3,240 Descending New York Center
05:06PM 42.2386 -75.9161 22° Northeast 137 158 9,000 3,420 Climbing New York Center
05:07PM 42.2769 -75.8994 18° North 137 158 9,000  Level New York Center
05:08PM 42.3131 -75.8797 22° Northeast 137 158 9,000  Level New York Center
05:09PM 42.3281 -75.8725 20° North 137 158 9,000  Level New York Center